createdAt,value
2018-12-09T00:00:23.169Z,1.70
2018-12-09T00:05:27.659Z,1.50
2018-12-09T00:10:32.146Z,2.00
2018-12-09T00:15:36.987Z,1.90
2018-12-09T00:20:41.485Z,1.90
2018-12-09T00:25:45.989Z,2.10
2018-12-09T00:30:50.487Z,1.83
2018-12-09T00:35:54.975Z,1.50
2018-12-09T00:40:59.449Z,1.73
2018-12-09T00:46:03.957Z,1.80
2018-12-09T00:51:08.466Z,1.30
2018-12-09T00:56:12.982Z,1.80
2018-12-09T01:01:17.478Z,1.57
2018-12-09T01:06:21.983Z,1.80
2018-12-09T01:11:26.535Z,1.47
2018-12-09T01:16:31.056Z,1.43
2018-12-09T01:21:35.550Z,1.67
2018-12-09T01:26:40.066Z,1.40
2018-12-09T01:31:44.574Z,1.60
2018-12-09T01:36:49.093Z,1.30
2018-12-09T01:41:53.606Z,1.90
2018-12-09T01:46:58.129Z,1.40
2018-12-09T01:52:02.635Z,1.03
2018-12-09T01:57:07.141Z,1.00
2018-12-09T02:02:11.649Z,1.10
2018-12-09T02:07:16.158Z,0.90
2018-12-09T02:12:20.670Z,0.80
2018-12-09T02:17:25.170Z,0.87
2018-12-09T02:22:29.746Z,0.87
2018-12-09T02:27:34.253Z,1.00
2018-12-09T02:32:38.781Z,0.90
2018-12-09T02:37:43.265Z,1.00
2018-12-09T02:42:47.754Z,1.00
2018-12-09T02:47:52.257Z,0.70
2018-12-09T02:52:56.746Z,1.00
2018-12-09T02:58:01.256Z,0.70
2018-12-09T03:03:05.753Z,0.97
2018-12-09T03:08:10.309Z,0.90
2018-12-09T03:13:14.814Z,1.07
2018-12-09T03:18:19.325Z,1.10
2018-12-09T03:23:23.840Z,0.90
2018-12-09T03:28:28.351Z,1.10
2018-12-09T03:33:34.508Z,1.40
2018-12-09T03:38:37.414Z,1.10
2018-12-09T03:43:41.918Z,1.30
2018-12-09T03:48:46.420Z,1.17
2018-12-09T03:53:50.957Z,1.00
2018-12-09T03:58:55.580Z,1.00
2018-12-09T04:04:00.026Z,0.90
2018-12-09T04:09:05.212Z,0.90
2018-12-09T04:14:09.745Z,0.90
2018-12-09T04:19:14.240Z,1.00
2018-12-09T04:24:18.726Z,0.90
2018-12-09T04:29:23.243Z,1.00
2018-12-09T04:34:27.741Z,0.70
2018-12-09T04:39:32.254Z,1.03
2018-12-09T04:44:36.761Z,1.10
2018-12-09T04:49:41.269Z,1.03
2018-12-09T04:54:45.769Z,1.00
2018-12-09T04:59:50.377Z,1.33
2018-12-09T05:04:54.885Z,1.30
2018-12-09T05:09:59.450Z,1.30
2018-12-09T05:15:04.026Z,1.20
2018-12-09T05:20:08.525Z,1.20
2018-12-09T05:25:13.038Z,1.20
2018-12-09T05:30:17.520Z,1.23
2018-12-09T05:35:22.023Z,1.67
2018-12-09T05:40:26.521Z,1.23
2018-12-09T05:45:31.008Z,1.27
2018-12-09T05:50:35.519Z,1.40
2018-12-09T05:55:40.050Z,1.20
2018-12-09T06:00:44.564Z,1.20
2018-12-09T06:05:49.090Z,1.43
2018-12-09T06:10:53.586Z,1.17
2018-12-09T06:15:58.129Z,1.80
2018-12-09T06:21:02.613Z,1.50
2018-12-09T06:26:07.189Z,1.37
2018-12-09T06:31:11.679Z,1.60
2018-12-09T06:36:16.200Z,1.50
2018-12-09T06:41:20.695Z,1.57
2018-12-09T06:46:25.189Z,1.60
2018-12-09T06:51:29.705Z,1.47
2018-12-09T06:56:34.197Z,2.00
2018-12-09T07:01:38.701Z,1.53
2018-12-09T07:06:43.185Z,1.60
2018-12-09T07:11:47.669Z,1.90
2018-12-09T07:16:52.225Z,1.70
2018-12-09T07:21:56.719Z,1.43
2018-12-09T07:27:01.248Z,1.90
2018-12-09T07:32:05.866Z,1.70
2018-12-09T07:37:10.397Z,2.17
2018-12-09T07:42:14.922Z,2.20
2018-12-09T07:47:19.465Z,1.77
2018-12-09T07:52:24.037Z,2.00
2018-12-09T07:57:28.711Z,2.57
2018-12-09T08:02:33.234Z,3.40
2018-12-09T08:07:37.750Z,4.00
2018-12-09T08:12:42.302Z,2.43
2018-12-09T08:17:46.917Z,2.23
2018-12-09T08:22:51.405Z,2.00
2018-12-09T08:27:55.934Z,1.97
2018-12-09T08:33:00.441Z,2.00
2018-12-09T08:38:05.053Z,1.80
2018-12-09T08:43:09.556Z,2.27
2018-12-09T08:48:14.062Z,1.80
2018-12-09T08:53:18.542Z,1.70
2018-12-09T08:58:23.039Z,1.87
2018-12-09T09:03:27.559Z,1.83
2018-12-09T09:08:32.053Z,3.83
2018-12-09T09:13:36.538Z,2.57
2018-12-09T09:18:41.048Z,2.30
2018-12-09T09:23:45.603Z,2.30
2018-12-09T09:28:50.081Z,2.07
2018-12-09T09:33:54.562Z,2.07
2018-12-09T09:38:59.077Z,1.70
2018-12-09T09:44:03.609Z,2.07
2018-12-09T09:49:08.088Z,2.10
2018-12-09T09:54:12.645Z,2.13
2018-12-09T09:59:17.146Z,1.80
2018-12-09T10:04:21.666Z,1.80
2018-12-09T10:09:26.158Z,1.60
2018-12-09T10:14:30.673Z,2.17
2018-12-09T10:19:35.173Z,1.67
2018-12-09T10:24:39.682Z,1.50
2018-12-09T10:29:44.194Z,1.57
2018-12-09T10:34:48.697Z,1.47
2018-12-09T10:39:53.193Z,1.40
2018-12-09T10:44:57.689Z,1.33
2018-12-09T10:50:02.183Z,1.40
2018-12-09T10:55:06.790Z,1.60
2018-12-09T11:00:15.349Z,1.50
2018-12-09T11:05:19.849Z,1.53
2018-12-09T11:10:24.337Z,2.70
2018-12-09T11:15:29.447Z,1.63
2018-12-09T11:20:33.961Z,1.57
2018-12-09T11:25:38.482Z,1.50
2018-12-09T11:30:43.023Z,2.33
2018-12-09T11:35:47.522Z,3.10
2018-12-09T11:40:52.070Z,2.90
2018-12-09T11:45:56.593Z,1.60
2018-12-09T11:51:01.103Z,1.57
2018-12-09T11:56:05.654Z,1.47
2018-12-09T12:01:10.153Z,1.13
2018-12-09T12:06:14.635Z,1.20
2018-12-09T12:11:19.131Z,1.23
2018-12-09T12:16:23.639Z,1.70
2018-12-09T12:21:28.185Z,1.50
2018-12-09T12:26:32.673Z,1.30
2018-12-09T12:31:37.298Z,1.50
2018-12-09T12:36:41.933Z,1.70
2018-12-09T12:41:46.475Z,1.70
2018-12-09T12:46:51.025Z,1.80
2018-12-09T12:51:55.590Z,1.80
2018-12-09T12:57:00.093Z,1.97
2018-12-09T13:02:04.612Z,1.67
2018-12-09T13:07:09.133Z,1.70
2018-12-09T13:12:13.682Z,1.80
2018-12-09T13:17:18.233Z,1.50
2018-12-09T13:22:23.043Z,2.43
2018-12-09T13:27:27.630Z,1.80
2018-12-09T13:32:32.208Z,2.30
2018-12-09T13:37:36.729Z,2.80
2018-12-09T13:42:41.274Z,3.00
2018-12-09T13:47:46.005Z,2.03
2018-12-09T13:52:50.585Z,2.80
2018-12-09T13:57:55.139Z,2.33
2018-12-09T14:02:59.881Z,2.77
2018-12-09T14:08:05.519Z,2.13
2018-12-09T14:13:10.860Z,2.10
2018-12-09T14:18:14.689Z,1.90
2018-12-09T14:23:19.196Z,2.10
2018-12-09T14:28:23.718Z,1.87
2018-12-09T14:33:28.553Z,1.43
2018-12-09T14:38:33.116Z,1.50
2018-12-09T14:43:37.706Z,2.73
2018-12-09T14:48:42.262Z,2.07
2018-12-09T14:53:46.774Z,2.17
2018-12-09T14:58:51.681Z,1.57
2018-12-09T15:03:56.275Z,1.87
2018-12-09T15:09:00.836Z,2.30
2018-12-09T15:14:05.695Z,2.10
2018-12-09T15:19:10.207Z,2.30
2018-12-09T15:24:14.727Z,2.50
2018-12-09T15:29:19.254Z,2.70
2018-12-09T15:34:23.769Z,2.13
2018-12-09T15:39:28.326Z,2.70
2018-12-09T15:44:33.238Z,2.50
2018-12-09T15:49:37.789Z,2.77
2018-12-09T15:54:42.805Z,2.20
2018-12-09T15:59:47.329Z,2.50
2018-12-09T16:04:51.883Z,2.87
2018-12-09T16:09:56.427Z,2.47
2018-12-09T16:15:01.022Z,2.63
2018-12-09T16:20:06.763Z,3.43
2018-12-09T16:25:11.522Z,2.80
2018-12-09T16:30:16.093Z,2.73
2018-12-09T16:35:20.854Z,3.07
2018-12-09T16:40:25.429Z,2.60
2018-12-09T16:45:30.000Z,2.60
2018-12-09T16:50:34.542Z,2.43
2018-12-09T16:55:39.178Z,2.00
2018-12-09T17:00:43.753Z,2.23
2018-12-09T17:05:48.409Z,2.20
2018-12-09T17:10:53.003Z,2.50
2018-12-09T17:15:57.623Z,2.20
2018-12-09T17:21:02.618Z,2.90
2018-12-09T17:26:07.372Z,2.47
2018-12-09T17:31:11.950Z,2.70
2018-12-09T17:36:16.434Z,2.93
2018-12-09T17:41:25.040Z,2.20
2018-12-09T17:46:25.700Z,2.30
2018-12-09T17:51:30.481Z,2.10
2018-12-09T17:56:35.239Z,2.50
2018-12-09T18:01:39.998Z,2.17
2018-12-09T18:06:44.626Z,2.10
2018-12-09T18:11:49.126Z,1.60
2018-12-09T18:16:53.713Z,1.80
2018-12-09T18:21:58.267Z,1.77
2018-12-09T18:27:02.804Z,1.83
2018-12-09T18:32:07.344Z,2.10
2018-12-09T18:37:11.922Z,2.00
2018-12-09T18:42:16.445Z,2.50
2018-12-09T18:47:20.997Z,2.07
2018-12-09T18:52:25.562Z,2.13
2018-12-09T18:57:30.077Z,2.37
2018-12-09T19:02:34.610Z,1.60
2018-12-09T19:07:40.133Z,2.43
2018-12-09T19:12:44.627Z,1.80
2018-12-09T19:17:49.165Z,1.90
2018-12-09T19:22:53.712Z,2.07
2018-12-09T19:27:58.257Z,2.07
2018-12-09T19:33:02.766Z,1.70
2018-12-09T19:38:07.292Z,1.87
2018-12-09T19:43:13.286Z,2.60
2018-12-09T19:48:16.474Z,1.97
2018-12-09T19:53:20.995Z,2.10
2018-12-09T19:58:25.575Z,2.03
2018-12-09T20:03:30.114Z,2.30
2018-12-09T20:08:34.766Z,1.87
2018-12-09T20:13:39.474Z,1.93
2018-12-09T20:18:44.085Z,2.30
2018-12-09T20:23:48.613Z,2.60
2018-12-09T20:28:53.219Z,1.80
2018-12-09T20:33:57.857Z,1.73
2018-12-09T20:39:02.465Z,1.93
2018-12-09T20:44:09.027Z,2.40
2018-12-09T20:49:11.698Z,2.53
2018-12-09T20:54:16.210Z,1.77
2018-12-09T20:59:20.742Z,1.97
2018-12-09T21:04:25.289Z,2.43
2018-12-09T21:09:30.090Z,2.40
2018-12-09T21:14:34.769Z,2.07
2018-12-09T21:19:39.414Z,2.27
2018-12-09T21:24:43.974Z,2.30
2018-12-09T21:29:48.555Z,2.53
2018-12-09T21:34:53.354Z,1.97
2018-12-09T21:39:57.877Z,2.50
2018-12-09T21:45:02.593Z,2.10
2018-12-09T21:50:07.925Z,2.20
2018-12-09T21:55:12.474Z,2.90
2018-12-09T22:00:17.021Z,3.00
2018-12-09T22:05:21.537Z,1.90
2018-12-09T22:10:26.102Z,2.33
2018-12-09T22:15:30.642Z,1.67
2018-12-09T22:20:35.158Z,1.60
2018-12-09T22:25:39.639Z,2.60
2018-12-09T22:30:44.196Z,2.30
2018-12-09T22:35:48.680Z,2.00
2018-12-09T22:40:53.229Z,2.47
2018-12-09T22:45:57.709Z,2.03
2018-12-09T22:51:02.196Z,2.70
2018-12-09T22:56:06.690Z,3.17
2018-12-09T23:01:16.381Z,2.23
2018-12-09T23:06:20.877Z,2.10
2018-12-09T23:11:25.377Z,2.07
2018-12-09T23:16:29.869Z,2.10
2018-12-09T23:21:34.389Z,2.20
2018-12-09T23:26:38.873Z,2.00
2018-12-09T23:31:43.369Z,2.53
2018-12-09T23:36:47.875Z,2.53
2018-12-09T23:41:52.390Z,2.40
2018-12-09T23:46:56.875Z,2.63
2018-12-09T23:52:01.377Z,2.20
2018-12-09T23:57:05.886Z,2.33
